Time;durP1;ratioP1;P1;durP2;ratioP2;P2;SDS_P1;SDS_P2;PMS_P1;PMS_P2;Temp;Humidity;BMP_temperature;BMP_pressure;BME280_temperature;BME280_humidity;BME280_pressure;Samples;Min_cycle;Max_cycle;Signal;HPM_P1;HPM_P2
2021/11/06 00:00:56;;;;;;;17.17;9.95;;;;;;;6.40;81.44;97416.53;5088996;28;20102;-71
2021/11/06 00:03:24;;;;;;;15.60;10.20;;;;;;;6.40;81.70;97419.25;5087516;28;20048;-72
2021/11/06 00:05:50;;;;;;;14.48;9.45;;;;;;;6.42;81.57;97419.81;5088772;28;20056;-73
2021/11/06 00:08:16;;;;;;;14.77;10.07;;;;;;;6.44;81.39;97420.34;5087980;28;20048;-71
2021/11/06 00:10:43;;;;;;;14.85;9.85;;;;;;;6.46;81.47;97418.19;5088997;28;20055;-72
2021/11/06 00:13:09;;;;;;;13.65;9.32;;;;;;;6.47;81.43;97416.28;5087505;28;20059;-72
2021/11/06 00:15:36;;;;;;;16.38;9.25;;;;;;;6.49;81.68;97417.66;5088446;28;20048;-72
2021/11/06 00:18:04;;;;;;;14.07;9.57;;;;;;;6.52;81.33;97419.84;5087628;28;20059;-72
2021/11/06 00:20:32;;;;;;;13.70;8.70;;;;;;;6.51;80.52;97415.50;5089008;28;20052;-72
2021/11/06 00:22:58;;;;;;;12.10;8.18;;;;;;;6.46;80.56;97423.59;5086030;28;20047;-72
2021/11/06 00:25:24;;;;;;;12.65;8.63;;;;;;;6.42;80.77;97417.09;5087218;28;20052;-71
2021/11/06 00:27:51;;;;;;;13.20;8.93;;;;;;;6.41;80.95;97420.88;5088438;28;20051;-72
2021/11/06 00:30:18;;;;;;;12.35;7.95;;;;;;;6.42;81.29;97417.09;5087169;28;20052;-72
2021/11/06 00:32:45;;;;;;;12.82;9.15;;;;;;;6.43;81.00;97415.22;5087868;28;20044;-72
2021/11/06 00:35:13;;;;;;;15.05;9.43;;;;;;;6.42;81.34;97416.25;5086997;28;20059;-71
2021/11/06 00:37:42;;;;;;;11.95;8.43;;;;;;;6.40;81.48;97421.13;5088405;28;20048;-72
2021/11/06 00:40:11;;;;;;;13.25;9.05;;;;;;;6.38;81.51;97409.78;5087785;28;20138;-70
2021/11/06 00:42:38;;;;;;;14.93;9.18;;;;;;;6.39;81.47;97417.63;5087764;28;20052;-70
2021/11/06 00:45:07;;;;;;;15.88;9.18;;;;;;;6.42;81.62;97417.09;5087665;28;20047;-70
2021/11/06 00:47:34;;;;;;;13.60;9.40;;;;;;;6.42;81.58;97417.09;5087692;28;20078;-70
2021/11/06 00:50:00;;;;;;;14.68;9.93;;;;;;;6.43;81.66;97410.59;5088203;28;20055;-70
2021/11/06 00:52:27;;;;;;;15.32;9.32;;;;;;;6.48;81.53;97410.63;5086580;28;20059;-70
2021/11/06 00:54:55;;;;;;;15.68;9.85;;;;;;;6.51;80.97;97410.06;5087932;28;20051;-70
2021/11/06 00:57:21;;;;;;;14.48;9.65;;;;;;;6.51;80.94;97414.69;5086905;28;20048;-71
2021/11/06 00:59:48;;;;;;;13.18;8.98;;;;;;;6.52;80.80;97410.88;5088113;28;20070;-70
2021/11/06 01:02:14;;;;;;;12.90;9.43;;;;;;;6.53;80.51;97418.75;5086412;28;20071;-71
2021/11/06 01:04:41;;;;;;;12.82;9.02;;;;;;;6.53;80.39;97420.66;5087833;28;20056;-70
2021/11/06 01:07:07;;;;;;;15.65;9.25;;;;;;;6.47;80.27;97414.41;5087294;28;20059;-70
2021/11/06 01:09:33;;;;;;;13.25;9.05;;;;;;;6.50;80.47;97418.47;5084080;28;20044;-70
2021/11/06 01:12:01;;;;;;;13.30;8.45;;;;;;;6.47;80.40;97406.31;5066386;28;20518;-70
2021/11/06 01:14:28;;;;;;;14.40;8.93;;;;;;;6.47;79.87;97416.28;5065320;28;20106;-70
2021/11/06 01:16:54;;;;;;;16.10;9.18;;;;;;;6.47;80.30;97421.69;5066687;28;20052;-70
2021/11/06 01:19:21;;;;;;;14.68;9.55;;;;;;;6.47;80.30;97414.41;5066414;28;20135;-72
2021/11/06 01:21:47;;;;;;;11.75;8.95;;;;;;;6.44;80.58;97414.94;5067680;28;20048;-71
2021/11/06 01:24:14;;;;;;;15.77;9.55;;;;;;;6.42;80.63;97406.28;5086134;28;20134;-70
2021/11/06 01:26:40;;;;;;;16.00;9.82;;;;;;;6.40;80.65;97408.41;5087484;28;20427;-70
2021/11/06 01:29:08;;;;;;;17.05;10.68;;;;;;;6.39;81.13;97408.69;5086516;28;20048;-70
2021/11/06 01:31:35;;;;;;;14.35;9.63;;;;;;;6.40;81.09;97416.53;5087344;28;20522;-70
2021/11/06 01:34:01;;;;;;;13.63;9.05;;;;;;;6.41;81.15;97404.63;5086582;28;20418;-71
2021/11/06 01:36:28;;;;;;;15.35;9.82;;;;;;;6.39;81.31;97406.81;5086983;28;20063;-70
2021/11/06 01:38:54;;;;;;;18.23;10.30;;;;;;;6.38;81.29;97405.19;5087618;28;20127;-70
2021/11/06 01:41:20;;;;;;;20.48;11.57;;;;;;;6.38;81.43;97402.47;5086242;28;20059;-71
2021/11/06 01:43:48;;;;;;;30.30;14.85;;;;;;;6.37;81.30;97403.56;5088630;28;20048;-71
2021/11/06 01:46:16;;;;;;;29.75;17.85;;;;;;;6.37;81.20;97408.97;5090554;28;20051;-70
2021/11/06 01:48:43;;;;;;;26.00;15.75;;;;;;;6.37;81.65;97406.25;5091518;28;20161;-71
2021/11/06 01:51:09;;;;;;;26.80;16.58;;;;;;;6.38;81.69;97413.28;5090657;28;20499;-71
2021/11/06 01:53:36;;;;;;;18.92;13.77;;;;;;;6.39;81.41;97411.41;5090680;28;20569;-71
2021/11/06 01:56:03;;;;;;;18.13;11.70;;;;;;;6.39;81.65;97414.91;5090361;28;20058;-71
2021/11/06 01:58:31;;;;;;;16.27;10.23;;;;;;;6.40;81.57;97413.03;5090890;28;20479;-71
2021/11/06 02:00:59;;;;;;;15.20;10.13;;;;;;;6.39;81.29;97411.41;5091155;28;20055;-70
2021/11/06 02:03:27;;;;;;;14.27;9.38;;;;;;;6.35;81.39;97407.59;5089819;28;20059;-71
2021/11/06 02:05:54;;;;;;;14.43;9.23;;;;;;;6.33;81.64;97402.47;5090778;28;20698;-71
2021/11/06 02:08:20;;;;;;;13.57;9.02;;;;;;;6.33;81.58;97399.75;5089733;28;20044;-71
2021/11/06 02:10:47;;;;;;;12.85;8.70;;;;;;;6.33;81.38;97397.03;5091008;28;20083;-71
2021/11/06 02:13:14;;;;;;;11.63;8.70;;;;;;;6.29;81.10;97395.94;5089483;28;20054;-71
2021/11/06 02:15:41;;;;;;;12.43;8.52;;;;;;;6.25;81.48;97394.84;5090828;28;20048;-71
2021/11/06 02:18:08;;;;;;;15.48;8.77;;;;;;;6.23;81.27;97394.31;5089566;28;20048;-71
2021/11/06 02:20:37;;;;;;;13.57;8.75;;;;;;;6.20;81.27;97392.09;5090720;28;20083;-71
2021/11/06 02:23:05;;;;;;;13.32;7.78;;;;;;;6.20;81.47;97397.50;5089525;28;20063;-71
2021/11/06 02:25:31;;;;;;;11.68;7.90;;;;;;;6.19;81.69;97391.31;5090127;28;20056;-71
2021/11/06 02:27:58;;;;;;;13.88;8.45;;;;;;;6.18;81.51;97397.78;5090913;28;20060;-70
2021/11/06 02:30:24;;;;;;;12.35;8.10;;;;;;;6.19;82.01;97401.31;5089655;28;20052;-71
2021/11/06 02:32:52;;;;;;;12.77;8.77;;;;;;;6.22;81.58;97395.38;5090523;28;20406;-70
2021/11/06 02:35:20;;;;;;;14.30;8.05;;;;;;;6.27;81.05;97393.50;5089071;28;20051;-71
2021/11/06 02:37:47;;;;;;;13.20;8.63;;;;;;;6.28;81.10;97399.72;5090457;28;20048;-71
2021/11/06 02:40:15;;;;;;;12.50;8.32;;;;;;;6.24;80.86;97398.63;5089488;28;20047;-71
2021/11/06 02:42:42;;;;;;;12.05;8.15;;;;;;;6.20;81.50;97400.22;5089899;28;20710;-70
2021/11/06 02:45:10;;;;;;;13.88;8.75;;;;;;;6.16;81.61;97396.41;5089717;28;20075;-71
2021/11/06 02:47:37;;;;;;;10.95;7.63;;;;;;;6.12;81.73;97400.75;5089771;28;20121;-71
2021/11/06 02:50:04;;;;;;;10.50;7.47;;;;;;;6.13;81.74;97395.06;5089830;28;20506;-71
2021/11/06 02:52:30;;;;;;;11.65;7.32;;;;;;;6.14;81.76;97399.38;5088812;28;20044;-71
2021/11/06 02:54:57;;;;;;;11.88;7.75;;;;;;;6.12;81.44;97398.03;5089710;28;20525;-71
2021/11/06 02:57:25;;;;;;;11.68;7.55;;;;;;;6.10;81.57;97402.88;5088728;28;20530;-71
2021/11/06 02:59:52;;;;;;;11.50;7.22;;;;;;;6.07;81.81;97393.41;5089782;28;20054;-71
2021/11/06 03:02:19;;;;;;;11.88;7.57;;;;;;;6.06;81.78;97396.41;5088782;28;20048;-71
2021/11/06 03:04:45;;;;;;;12.07;7.45;;;;;;;6.05;81.83;97405.56;5089700;28;20133;-70
2021/11/06 03:07:12;;;;;;;10.30;7.20;;;;;;;6.01;81.60;97405.28;5088970;28;20419;-71
2021/11/06 03:09:39;;;;;;;11.23;6.47;;;;;;;5.99;81.85;97415.53;5089639;28;20075;-71
2021/11/06 03:12:07;;;;;;;10.88;6.43;;;;;;;6.00;82.12;97412.59;5089179;28;20056;-71
2021/11/06 03:14:36;;;;;;;10.65;6.75;;;;;;;5.99;81.61;97413.66;5089145;28;20052;-71
2021/11/06 03:17:04;;;;;;;9.38;6.18;;;;;;;5.95;82.02;97417.97;5089567;28;20052;-71
2021/11/06 03:19:30;;;;;;;9.23;6.15;;;;;;;5.95;81.97;97417.97;5089036;28;20081;-71
2021/11/06 03:21:57;;;;;;;8.80;6.03;;;;;;;5.96;82.15;97419.59;5089678;28;20052;-70
2021/11/06 03:24:23;;;;;;;10.98;6.47;;;;;;;6.01;82.28;97426.91;5088354;28;20040;-71
2021/11/06 03:26:50;;;;;;;10.55;6.68;;;;;;;5.98;82.00;97420.13;5089956;28;20059;-71
2021/11/06 03:29:16;;;;;;;9.52;6.38;;;;;;;5.99;81.88;97419.06;5089386;28;20052;-71
2021/11/06 03:31:44;;;;;;;11.25;6.45;;;;;;;6.05;81.82;97421.78;5089148;28;20139;-70
2021/11/06 03:34:10;;;;;;;9.68;6.80;;;;;;;6.06;81.81;97418.03;5088342;28;20044;-70
2021/11/06 03:36:37;;;;;;;11.30;6.53;;;;;;;6.07;81.96;97423.16;5088924;28;20071;-70
2021/11/06 03:39:04;;;;;;;8.02;6.32;;;;;;;6.08;82.03;97421.28;5089143;28;20689;-71
2021/11/06 03:41:31;;;;;;;9.82;5.80;;;;;;;6.09;82.06;97415.59;5088292;28;20523;-70
2021/11/06 03:43:58;;;;;;;9.13;5.70;;;;;;;6.13;81.95;97418.59;5088819;28;20113;-70
2021/11/06 03:46:24;;;;;;;12.23;6.88;;;;;;;6.15;81.23;97419.13;5087765;28;20046;-71
2021/11/06 03:48:53;;;;;;;8.95;5.70;;;;;;;6.15;81.32;97422.66;5089024;28;20048;-70
2021/11/06 03:51:20;;;;;;;9.38;6.10;;;;;;;6.18;80.82;97426.72;5088214;28;20044;-71
2021/11/06 03:53:47;;;;;;;7.70;5.50;;;;;;;6.20;80.86;97424.56;5088202;28;20124;-71
2021/11/06 03:56:13;;;;;;;10.45;5.95;;;;;;;6.23;80.64;97424.03;5088180;28;20507;-71
2021/11/06 03:58:40;;;;;;;8.20;5.80;;;;;;;6.19;80.51;97423.75;5088621;28;20055;-70
2021/11/06 04:01:06;;;;;;;8.48;5.80;;;;;;;6.15;80.66;97427.25;5088679;28;20048;-71
2021/11/06 04:03:33;;;;;;;9.45;6.07;;;;;;;6.10;81.08;97414.50;5087709;28;20075;-70
2021/11/06 04:06:01;;;;;;;8.23;6.05;;;;;;;6.07;81.07;97425.06;5089001;28;20106;-71
2021/11/06 04:08:28;;;;;;;11.98;6.93;;;;;;;6.08;81.20;97426.69;5086805;28;20048;-71
2021/11/06 04:10:54;;;;;;;9.38;5.82;;;;;;;6.05;81.59;97421.78;5088695;28;20056;-71
2021/11/06 04:13:21;;;;;;;10.38;5.78;;;;;;;6.04;81.55;97420.97;5087371;28;20044;-71
2021/11/06 04:15:47;;;;;;;10.35;6.22;;;;;;;5.99;81.71;97429.88;5088590;28;20272;-70
2021/11/06 04:18:14;;;;;;;11.40;5.97;;;;;;;5.98;81.79;97428.25;5087912;28;20044;-71
2021/11/06 04:20:40;;;;;;;12.00;6.20;;;;;;;5.95;81.64;97428.78;5087861;28;20521;-71
2021/11/06 04:23:09;;;;;;;9.15;6.15;;;;;;;5.94;81.79;97432.53;5087020;28;20523;-71
2021/11/06 04:25:35;;;;;;;7.22;5.35;;;;;;;5.90;81.83;97426.03;5088103;28;20048;-71
2021/11/06 04:28:02;;;;;;;9.60;5.70;;;;;;;5.84;81.83;97427.03;5088489;28;20048;-71
2021/11/06 04:30:29;;;;;;;8.23;5.47;;;;;;;5.81;81.74;97430.28;5087285;28;20058;-70
2021/11/06 04:32:55;;;;;;;7.05;5.20;;;;;;;5.75;81.75;97423.22;5088052;28;20136;-70
2021/11/06 04:35:22;;;;;;;7.57;5.22;;;;;;;5.73;82.18;97433.47;5086865;28;20063;-70
2021/11/06 04:37:48;;;;;;;7.78;5.57;;;;;;;5.74;81.90;97424.28;5088205;28;20056;-70
2021/11/06 04:40:16;;;;;;;8.68;5.25;;;;;;;5.72;82.07;97431.84;5087180;28;20052;-71
2021/11/06 04:42:43;;;;;;;10.13;5.65;;;;;;;5.70;82.16;97431.28;5087587;28;20048;-70
2021/11/06 04:45:11;;;;;;;7.95;5.50;;;;;;;5.66;82.12;97428.28;5087389;28;20055;-71
2021/11/06 04:47:38;;;;;;;7.65;5.57;;;;;;;5.65;82.31;97431.25;5087405;28;20047;-71
2021/11/06 04:50:07;;;;;;;8.80;5.97;;;;;;;5.64;82.35;97438.56;5087434;28;20054;-71
2021/11/06 04:52:35;;;;;;;10.00;5.55;;;;;;;5.64;82.13;97432.34;5086148;28;20048;-71
2021/11/06 04:55:03;;;;;;;9.98;5.80;;;;;;;5.63;81.99;97431.50;5087854;28;20109;-71
2021/11/06 04:57:31;;;;;;;11.38;6.35;;;;;;;5.57;82.29;97426.31;5087010;28;20526;-70
2021/11/06 04:59:57;;;;;;;10.48;6.93;;;;;;;5.56;82.33;97435.50;5088180;28;20457;-70
2021/11/06 05:02:24;;;;;;;10.05;6.80;;;;;;;5.56;82.02;97435.50;5086779;28;20051;-70
2021/11/06 05:04:50;;;;;;;8.77;6.45;;;;;;;5.55;81.46;97434.69;5087657;28;20048;-70
2021/11/06 05:07:17;;;;;;;10.00;6.20;;;;;;;5.50;81.37;97435.47;5087211;28;20058;-70
2021/11/06 05:09:44;;;;;;;10.38;6.72;;;;;;;5.45;81.44;97435.44;5087647;28;20052;-70
2021/11/06 05:12:11;;;;;;;12.07;7.13;;;;;;;5.41;81.59;97438.91;5087248;28;20613;-70
2021/11/06 05:14:39;;;;;;;10.38;6.75;;;;;;;5.39;81.87;97435.66;5086628;28;20052;-70
2021/11/06 05:17:06;;;;;;;11.43;6.97;;;;;;;5.37;81.90;97441.31;5087485;28;20461;-70
2021/11/06 05:19:33;;;;;;;16.90;9.02;;;;;;;5.34;81.96;97439.13;5086629;28;20058;-70
2021/11/06 05:21:59;;;;;;;14.20;8.77;;;;;;;5.32;82.04;97441.25;5087677;28;20481;-70
2021/11/06 05:24:26;;;;;;;21.75;10.88;;;;;;;5.30;82.13;97434.50;5086248;28;20056;-70
2021/11/06 05:26:52;;;;;;;23.42;11.38;;;;;;;5.25;81.87;97429.88;5087555;28;20499;-70
2021/11/06 05:29:19;;;;;;;17.75;10.57;;;;;;;5.23;81.96;97434.72;5086593;28;20048;-70
2021/11/06 05:31:47;;;;;;;18.90;10.98;;;;;;;5.21;81.88;97434.16;5087161;28;20063;-70
2021/11/06 05:34:14;;;;;;;15.65;9.77;;;;;;;5.19;81.85;97439.00;5086740;28;20048;-70
2021/11/06 05:36:40;;;;;;;14.80;9.70;;;;;;;5.15;81.85;97435.19;5086857;28;20086;-70
2021/11/06 05:39:07;;;;;;;13.25;8.27;;;;;;;5.12;82.16;97436.53;5087440;28;20048;-70
2021/11/06 05:41:34;;;;;;;13.02;8.15;;;;;;;5.09;81.94;97433.50;5087535;28;20078;-70
2021/11/06 05:44:01;;;;;;;12.75;8.25;;;;;;;5.06;81.87;97442.09;5087514;28;20052;-71
2021/11/06 05:46:27;;;;;;;11.70;8.10;;;;;;;5.02;82.05;97441.00;5086420;28;20067;-71
2021/11/06 05:48:55;;;;;;;11.55;7.50;;;;;;;4.97;82.08;97442.59;5087296;28;20040;-71
2021/11/06 05:51:22;;;;;;;11.65;7.05;;;;;;;4.97;81.76;97441.78;5086541;28;20052;-70
2021/11/06 05:53:49;;;;;;;12.68;7.35;;;;;;;4.92;81.67;97445.22;5086584;28;20067;-70
2021/11/06 05:56:16;;;;;;;10.20;7.22;;;;;;;4.87;81.34;97445.19;5086545;28;20048;-71
2021/11/06 05:58:42;;;;;;;13.43;7.22;;;;;;;4.81;81.14;97446.22;5086719;28;20079;-71
2021/11/06 06:01:09;;;;;;;11.35;7.07;;;;;;;4.76;81.15;97448.84;5087001;28;20048;-71
2021/11/06 06:03:36;;;;;;;9.57;6.75;;;;;;;4.71;81.39;97456.88;5085855;28;20059;-72
2021/11/06 06:06:03;;;;;;;10.82;6.80;;;;;;;4.65;81.60;97458.72;5086845;28;20051;-72
2021/11/06 06:08:30;;;;;;;11.38;7.03;;;;;;;4.60;81.41;97455.97;5086932;28;20177;-72
2021/11/06 06:10:56;;;;;;;12.27;7.40;;;;;;;4.55;81.58;97455.09;5086002;28;20044;-72
2021/11/06 06:13:25;;;;;;;11.73;7.68;;;;;;;4.51;81.47;97459.34;5085872;28;20063;-72
2021/11/06 06:15:52;;;;;;;11.43;7.25;;;;;;;4.43;81.91;97457.91;5086518;28;20055;-72
2021/11/06 06:18:18;;;;;;;13.73;7.68;;;;;;;4.38;81.93;97469.44;5086379;28;20073;-72
2021/11/06 06:20:45;;;;;;;13.68;7.80;;;;;;;4.33;82.37;97472.09;5086317;28;20051;-72
2021/11/06 06:23:12;;;;;;;10.23;7.55;;;;;;;4.28;82.49;97472.03;5086151;28;20056;-72
2021/11/06 06:25:39;;;;;;;11.60;7.55;;;;;;;4.25;82.60;97464.44;5086237;28;20051;-72
2021/11/06 06:28:06;;;;;;;12.25;7.78;;;;;;;4.24;82.53;97462.81;5086870;28;20055;-72
2021/11/06 06:30:33;;;;;;;11.38;7.68;;;;;;;4.22;82.79;97474.88;5086852;28;20102;-72
2021/11/06 06:33:00;;;;;;;10.63;7.22;;;;;;;4.22;82.97;97480.28;5090107;28;20499;-72
2021/11/06 06:35:28;;;;;;;13.07;7.60;;;;;;;4.23;82.59;97477.34;5089261;28;20062;-73
2021/11/06 06:37:55;;;;;;;21.25;12.38;;;;;;;4.24;82.27;97480.88;5090325;28;20048;-72
2021/11/06 06:40:23;;;;;;;15.70;9.63;;;;;;;4.24;82.55;97484.38;5089238;28;20051;-72
2021/11/06 06:42:49;;;;;;;14.90;8.20;;;;;;;4.23;82.64;97488.16;5089299;28;20060;-73
2021/11/06 06:45:16;;;;;;;11.77;8.55;;;;;;;4.24;83.08;97487.06;5089948;28;20059;-72
2021/11/06 06:47:43;;;;;;;12.18;8.18;;;;;;;4.25;83.08;97487.88;5089523;28;20048;-73
2021/11/06 06:50:11;;;;;;;13.10;8.68;;;;;;;4.27;83.14;97491.94;5089874;28;20052;-73
2021/11/06 06:52:39;;;;;;;13.55;8.57;;;;;;;4.26;83.35;97498.41;5088949;28;20060;-72
2021/11/06 06:55:07;;;;;;;12.77;9.20;;;;;;;4.28;83.37;97496.31;5089801;28;20521;-72
2021/11/06 06:57:35;;;;;;;17.55;9.90;;;;;;;4.30;83.63;97498.75;5089118;28;20055;-72
2021/11/06 07:00:03;;;;;;;15.57;10.23;;;;;;;4.32;83.68;97505.50;5089256;28;20048;-72
2021/11/06 07:02:30;;;;;;;15.25;9.35;;;;;;;4.35;83.70;97501.50;5089104;28;20059;-72
2021/11/06 07:04:56;;;;;;;15.75;9.73;;;;;;;4.39;83.68;97508.03;5089188;28;20052;-72
2021/11/06 07:07:22;;;;;;;15.27;10.15;;;;;;;4.44;83.90;97502.72;5089310;28;20053;-71
2021/11/06 07:09:50;;;;;;;15.55;10.55;;;;;;;4.48;83.88;97508.41;5089362;28;20117;-71
2021/11/06 07:12:16;;;;;;;13.27;9.02;;;;;;;4.52;83.80;97518.44;5089280;28;20055;-72
2021/11/06 07:14:45;;;;;;;14.40;9.48;;;;;;;4.57;84.00;97515.00;5088432;28;20052;-72
2021/11/06 07:17:12;;;;;;;12.70;8.60;;;;;;;4.62;83.74;97517.75;5089349;28;20499;-71
2021/11/06 07:19:38;;;;;;;15.63;9.95;;;;;;;4.66;83.65;97513.50;5088941;28;20052;-72
2021/11/06 07:22:06;;;;;;;15.65;10.15;;;;;;;4.70;83.82;97515.44;5089019;28;20476;-72
2021/11/06 07:24:32;;;;;;;15.65;9.57;;;;;;;4.77;83.69;97514.44;5089000;28;20079;-73
2021/11/06 07:26:59;;;;;;;17.58;9.98;;;;;;;4.82;83.83;97518.00;5089364;28;20682;-71
2021/11/06 07:29:25;;;;;;;15.07;10.40;;;;;;;4.89;83.94;97513.22;5088713;28;20052;-71
2021/11/06 07:31:53;;;;;;;13.32;9.45;;;;;;;4.97;83.42;97520.88;5088711;28;20044;-71
2021/11/06 07:34:19;;;;;;;17.38;9.88;;;;;;;5.10;82.61;97518.81;5088887;28;20059;-72
2021/11/06 07:36:46;;;;;;;16.00;9.70;;;;;;;5.19;81.82;97528.09;5086872;28;20515;-72
2021/11/06 07:39:12;;;;;;;12.07;9.07;;;;;;;5.23;81.12;97543.56;5089168;28;20052;-71
2021/11/06 07:41:39;;;;;;;12.50;8.73;;;;;;;5.35;81.16;97548.78;5088142;28;20122;-72
2021/11/06 07:44:05;;;;;;;13.32;8.48;;;;;;;5.37;80.66;97545.81;5088854;28;20044;-72
2021/11/06 07:46:32;;;;;;;12.27;8.18;;;;;;;5.47;81.00;97541.34;5088446;28;20052;-72
2021/11/06 07:49:00;;;;;;;10.52;7.35;;;;;;;5.53;80.18;97541.38;5089032;28;20048;-72
2021/11/06 07:51:27;;;;;;;9.82;7.38;;;;;;;5.57;79.60;97539.81;5088368;28;20047;-72
2021/11/06 07:53:53;;;;;;;11.25;7.70;;;;;;;5.64;79.46;97540.44;5088402;28;20044;-72
2021/11/06 07:56:20;;;;;;;8.40;6.40;;;;;;;5.74;78.62;97535.09;5088467;28;20048;-72
2021/11/06 07:58:46;;;;;;;9.98;6.20;;;;;;;5.86;78.54;97543.03;5088200;28;20110;-72
2021/11/06 08:01:13;;;;;;;8.77;6.60;;;;;;;6.00;78.28;97542.38;5088685;28;20055;-72
2021/11/06 08:03:39;;;;;;;11.63;7.65;;;;;;;6.11;76.09;97545.13;5087751;28;20051;-72
2021/11/06 08:06:07;;;;;;;7.70;5.35;;;;;;;6.17;75.29;97541.41;5088948;28;20063;-72
2021/11/06 08:08:34;;;;;;;7.70;5.60;;;;;;;6.28;75.10;97551.22;5088384;28;20060;-72
2021/11/06 08:11:01;;;;;;;9.60;5.40;;;;;;;6.46;75.48;97553.47;5088891;28;20052;-72
2021/11/06 08:13:29;;;;;;;8.77;6.00;;;;;;;6.66;75.18;97558.19;5087730;28;20052;-72
2021/11/06 08:15:56;;;;;;;6.82;5.32;;;;;;;6.84;74.78;97553.38;5088420;28;20043;-72
2021/11/06 08:18:23;;;;;;;10.88;6.00;;;;;;;6.98;73.08;97549.91;5087915;28;20048;-72
2021/11/06 08:20:50;;;;;;;8.30;6.28;;;;;;;7.19;73.97;97549.97;5087899;28;20048;-72
2021/11/06 08:23:18;;;;;;;8.52;5.65;;;;;;;7.39;73.28;97554.66;5086573;28;20445;-72
2021/11/06 08:25:46;;;;;;;10.23;5.72;;;;;;;7.56;72.78;97550.59;5087535;28;20735;-72
2021/11/06 08:28:13;;;;;;;9.10;5.40;;;;;;;7.68;71.40;97542.22;5088315;28;20048;-72
2021/11/06 08:30:40;;;;;;;8.50;5.15;;;;;;;7.72;70.52;97543.28;5088156;28;20056;-71
2021/11/06 08:33:07;;;;;;;7.60;5.22;;;;;;;7.69;69.93;97543.84;5088012;28;20040;-71
2021/11/06 08:35:34;;;;;;;13.27;5.90;;;;;;;7.71;70.10;97538.97;5088232;28;20048;-72
2021/11/06 08:38:02;;;;;;;10.10;5.57;;;;;;;7.64;69.42;97548.47;5088534;28;20071;-72
2021/11/06 08:40:30;;;;;;;9.27;6.32;;;;;;;7.68;70.06;97541.41;5088106;28;20048;-72
2021/11/06 08:42:57;;;;;;;9.00;5.85;;;;;;;7.69;70.19;97537.63;5088041;28;20416;-73
2021/11/06 08:45:25;;;;;;;9.40;6.72;;;;;;;7.78;70.63;97542.22;5088232;28;20047;-71
2021/11/06 08:47:52;;;;;;;9.93;6.07;;;;;;;7.78;69.72;97546.84;5087679;28;20056;-72
2021/11/06 08:50:21;;;;;;;9.25;6.40;;;;;;;7.79;70.03;97534.91;5088196;28;20507;-73
2021/11/06 08:52:49;;;;;;;9.45;6.40;;;;;;;7.89;70.10;97532.19;5086588;28;20051;-72
2021/11/06 08:55:16;;;;;;;7.88;5.68;;;;;;;7.93;69.04;97532.44;5087748;28;20043;-72
2021/11/06 08:57:45;;;;;;;10.27;6.25;;;;;;;7.92;68.85;97537.06;5087320;28;20048;-71
2021/11/06 09:00:15;;;;;;;8.73;6.20;;;;;;;7.98;69.62;97530.53;5087631;28;20078;-71
2021/11/06 09:02:42;;;;;;;11.27;7.00;;;;;;;8.08;67.74;97532.44;5087571;28;20051;-71
2021/11/06 09:05:10;;;;;;;11.45;7.15;;;;;;;8.16;69.16;97526.47;5087181;28;20048;-71
2021/11/06 09:07:36;;;;;;;14.48;8.73;;;;;;;8.10;68.84;97530.28;5087776;28;20050;-72
2021/11/06 09:10:05;;;;;;;11.95;8.65;;;;;;;8.15;70.07;97529.47;5087821;28;20058;-72
2021/11/06 09:12:32;;;;;;;14.13;9.60;;;;;;;8.27;69.53;97527.28;5087881;28;20052;-72
2021/11/06 09:15:00;;;;;;;13.23;9.48;;;;;;;8.42;69.33;97532.69;5087141;28;20067;-72
2021/11/06 09:17:27;;;;;;;12.57;8.30;;;;;;;8.59;68.52;97530.47;5087787;28;20048;-72
2021/11/06 09:19:54;;;;;;;14.93;9.50;;;;;;;8.89;67.71;97532.28;5087404;28;20113;-72
2021/11/06 09:22:22;;;;;;;13.10;8.63;;;;;;;9.07;66.61;97536.25;5087224;28;20048;-72
2021/11/06 09:24:49;;;;;;;14.68;8.95;;;;;;;9.20;65.94;97537.56;5087303;28;20710;-72
2021/11/06 09:27:16;;;;;;;18.27;11.55;;;;;;;9.37;66.37;97545.34;5086962;28;20044;-72
2021/11/06 09:29:43;;;;;;;18.00;12.43;;;;;;;9.70;67.65;97545.66;5087914;28;20048;-72
2021/11/06 09:32:11;;;;;;;17.30;11.50;;;;;;;9.92;65.18;97540.63;5086875;28;20044;-72
2021/11/06 09:34:38;;;;;;;16.98;11.48;;;;;;;9.99;64.17;97540.28;5087901;28;20055;-71
2021/11/06 09:37:05;;;;;;;17.38;11.35;;;;;;;10.16;65.58;97546.94;5086673;28;20705;-71
2021/11/06 09:39:31;;;;;;;17.55;11.82;;;;;;;10.29;62.16;97544.69;5087865;28;20051;-71
2021/11/06 09:41:58;;;;;;;21.27;13.57;;;;;;;10.08;62.39;97550.28;5087026;28;20052;-72
2021/11/06 09:44:25;;;;;;;18.15;12.27;;;;;;;9.92;64.18;97546.06;5086925;28;20385;-72
2021/11/06 09:46:52;;;;;;;18.25;11.10;;;;;;;10.00;64.11;97550.88;5086963;28;20067;-72
2021/11/06 09:49:20;;;;;;;18.80;11.88;;;;;;;10.22;63.73;97541.44;5087051;28;20051;-72
2021/11/06 09:51:47;;;;;;;16.88;10.88;;;;;;;10.50;63.04;97537.94;5087195;28;20051;-72
2021/11/06 09:54:14;;;;;;;19.27;11.77;;;;;;;10.73;63.00;97535.50;5086199;28;20052;-72
2021/11/06 09:56:40;;;;;;;20.38;12.93;;;;;;;11.02;64.80;97530.81;5087389;28;20056;-72
2021/11/06 09:59:07;;;;;;;19.58;13.13;;;;;;;11.28;63.06;97538.66;5086019;28;20055;-72
2021/11/06 10:01:34;;;;;;;19.30;12.63;;;;;;;11.50;61.65;97538.88;5087357;28;20055;-73
2021/11/06 10:04:07;;;;;;;19.05;13.18;;;;;;;11.79;60.64;97537.88;5086741;28;20059;-72
2021/11/06 10:06:36;;;;;;;20.23;13.00;;;;;;;12.09;60.39;97542.91;5090314;28;20538;-72
2021/11/06 10:09:08;;;;;;;19.13;12.05;;;;;;;12.32;58.20;97530.22;5090725;28;20529;-72
2021/11/06 10:11:35;;;;;;;15.60;11.23;;;;;;;12.48;58.06;97533.50;5091370;28;20072;-72
2021/11/06 10:14:04;;;;;;;17.92;11.73;;;;;;;12.57;57.61;97525.38;5090624;28;20052;-73
2021/11/06 10:16:33;;;;;;;13.18;10.35;;;;;;;12.46;55.73;97532.97;5091254;28;20078;-72
2021/11/06 10:19:08;;;;;;;13.85;10.77;;;;;;;12.16;55.31;97537.88;5091579;28;20048;-73
2021/11/06 10:21:37;;;;;;;12.85;9.73;;;;;;;11.92;56.01;97537.19;5090533;28;20048;-72
2021/11/06 10:24:04;;;;;;;12.73;9.50;;;;;;;11.95;56.92;97536.56;5090321;28;20052;-72
2021/11/06 10:26:31;;;;;;;15.93;10.10;;;;;;;12.18;56.21;97535.66;5090366;28;20469;-72
2021/11/06 10:29:06;;;;;;;13.95;10.20;;;;;;;12.26;55.70;97531.41;5091510;28;20055;-72
2021/11/06 10:31:34;;;;;;;12.50;9.45;;;;;;;12.35;54.57;97523.34;5090656;28;20048;-72
2021/11/06 10:34:11;;;;;;;13.18;9.95;;;;;;;12.35;55.32;97520.59;5091135;28;20460;-72
2021/11/06 10:36:39;;;;;;;15.38;10.77;;;;;;;12.34;53.73;97517.06;5090878;28;20055;-72
2021/11/06 10:39:09;;;;;;;13.88;10.10;;;;;;;12.20;53.52;97519.75;5090046;28;20418;-72
2021/11/06 10:41:38;;;;;;;15.45;10.50;;;;;;;12.14;56.24;97512.78;5091510;28;20048;-71
2021/11/06 10:44:05;;;;;;;14.45;10.43;;;;;;;12.22;55.18;97514.81;5089730;28;20047;-72
2021/11/06 10:46:32;;;;;;;13.63;9.95;;;;;;;12.17;54.63;97501.25;5091330;28;20047;-72
2021/11/06 10:49:00;;;;;;;11.73;9.63;;;;;;;12.17;53.32;97498.53;5090094;28;20838;-72
2021/11/06 10:51:27;;;;;;;14.68;9.70;;;;;;;12.18;54.80;97500.16;5090086;28;20056;-72
2021/11/06 10:53:56;;;;;;;12.38;9.68;;;;;;;12.18;55.26;97497.41;5105569;27;20055;-72
2021/11/06 10:56:31;;;;;;;11.77;8.93;;;;;;;12.17;54.48;97495.00;5090189;28;20821;-72
2021/11/06 10:59:01;;;;;;;10.73;8.40;;;;;;;12.21;54.61;97487.78;5090413;28;20052;-72
2021/11/06 11:01:30;;;;;;;11.68;8.38;;;;;;;12.22;53.41;97487.53;5089488;28;20403;-72
2021/11/06 11:04:01;;;;;;;13.93;9.52;;;;;;;12.11;53.69;97479.78;5090473;28;20040;-72
2021/11/06 11:06:34;;;;;;;11.88;9.50;;;;;;;12.04;53.66;97485.66;5090000;28;20044;-72
2021/11/06 11:09:03;;;;;;;13.20;9.98;;;;;;;12.19;56.86;97482.66;5090561;28;20052;-72
2021/11/06 11:11:33;;;;;;;12.60;9.88;;;;;;;12.34;54.46;97476.09;5103711;28;20491;-72
2021/11/06 11:14:03;;;;;;;11.93;9.07;;;;;;;12.45;54.20;97474.78;5110592;28;20074;-71
2021/11/06 11:16:32;;;;;;;14.93;9.75;;;;;;;12.49;54.28;97475.81;5109744;27;20048;-72
2021/11/06 11:19:04;;;;;;;13.65;9.10;;;;;;;12.61;53.90;97469.03;5109995;28;20134;-72
2021/11/06 11:21:33;;;;;;;12.90;9.52;;;;;;;12.71;54.06;97472.38;5110131;27;20070;-71
2021/11/06 11:24:02;;;;;;;13.68;9.70;;;;;;;12.83;54.41;97463.66;5091462;28;20067;-72
2021/11/06 11:26:31;;;;;;;12.00;9.48;;;;;;;12.68;53.13;97467.50;5090251;28;20058;-72
2021/11/06 11:28:57;;;;;;;14.50;10.10;;;;;;;12.52;53.83;97455.25;5089095;28;20418;-72
2021/11/06 11:31:26;;;;;;;12.73;9.88;;;;;;;12.32;53.86;97469.31;5089811;28;20109;-72